Time;durP1;ratioP1;P1;durP2;ratioP2;P2;SDS_P1;SDS_P2;PMS_P1;PMS_P2;Temp;Humidity;BMP_temperature;BMP_pressure;BME280_temperature;BME280_humidity;BME280_pressure;Samples;Min_cycle;Max_cycle;Signal;HPM_P1;HPM_P2
2022/02/05 00:02:30;;;;;;;4.43;4.22;;;;;;;2.52;94.06;101187.19;5990686;23;20015;-71
2022/02/05 00:04:57;;;;;;;3.20;3.10;;;;;;;2.54;93.42;101182.84;5996421;23;20551;-71
2022/02/05 00:07:28;;;;;;;3.10;3.00;;;;;;;2.58;93.20;101196.63;5996977;23;20090;-71
2022/02/05 00:13:25;;;;;;;3.00;2.90;;;;;;;2.25;93.04;101156.44;5998747;23;20030;-71
2022/02/05 00:15:41;;;;;;;2.92;2.83;;;;;;;2.16;92.83;101129.72;6015492;23;20595;-70
2022/02/05 00:40:15;;;;;;;2.80;2.70;;;;;;;2.01;93.99;101160.97;6022559;23;20018;-70
2022/02/05 00:42:42;;;;;;;2.90;2.80;;;;;;;2.46;93.31;101244.25;6000554;23;20086;-69
2022/02/05 00:45:11;;;;;;;3.15;3.05;;;;;;;1.95;92.95;101158.44;6000414;23;20026;-69
2022/02/05 00:47:41;;;;;;;3.15;3.05;;;;;;;2.47;92.93;101251.16;5990546;23;20023;-69
2022/02/05 00:50:15;;;;;;;2.97;2.88;;;;;;;2.59;92.59;101257.97;6022804;23;20030;-71
2022/02/05 00:52:45;;;;;;;3.42;3.33;;;;;;;2.55;92.07;101253.69;5991114;23;20050;-69
2022/02/05 00:55:22;;;;;;;3.25;3.15;;;;;;;2.09;92.46;101184.19;6025087;23;20027;-69
2022/02/05 00:57:48;;;;;;;3.00;2.90;;;;;;;2.52;92.09;101245.94;5993397;23;20693;-67
2022/02/05 01:00:18;;;;;;;3.00;2.90;;;;;;;1.86;91.90;101172.31;6025950;23;20076;-69
2022/02/05 01:02:45;;;;;;;3.30;3.20;;;;;;;1.82;92.51;101173.19;5992179;23;20023;-68
2022/02/05 01:05:12;;;;;;;2.90;2.80;;;;;;;2.45;92.91;101258.09;6021788;23;20022;-69
2022/02/05 01:07:39;;;;;;;2.90;2.80;;;;;;;2.53;92.21;101258.03;6018064;23;20046;-69
2022/02/05 01:10:06;;;;;;;2.80;2.70;;;;;;;2.44;92.21;101255.50;6028000;23;20022;-72
2022/02/05 01:12:35;;;;;;;3.40;3.30;;;;;;;2.45;92.28;101249.47;5969578;23;20742;-71
2022/02/05 01:15:03;;;;;;;2.80;2.70;;;;;;;2.40;91.70;101260.69;6022668;23;20031;-70
2022/02/05 01:17:37;;;;;;;3.88;3.72;;;;;;;2.02;92.13;101209.25;5996339;23;20016;-69
2022/02/05 01:22:44;;;;;;;2.80;2.70;;;;;;;2.46;91.95;101277.06;6029109;23;20017;-69
2022/02/05 01:25:12;;;;;;;3.03;2.92;;;;;;;2.36;92.35;101287.50;5999484;23;20034;-69
2022/02/05 01:27:45;;;;;;;3.10;3.00;;;;;;;1.94;92.86;101235.22;6024239;23;20019;-69
2022/02/05 01:32:43;;;;;;;2.70;2.60;;;;;;;1.92;93.10;101226.59;5998939;23;20364;-71
2022/02/05 01:35:18;;;;;;;2.80;2.70;;;;;;;2.20;93.12;101254.84;5988747;23;20031;-71
2022/02/05 01:57:02;;;;;;;2.90;2.80;;;;;;;2.17;91.97;101265.25;5998466;23;20737;-71
2022/02/05 02:04:50;;;;;;;2.90;2.80;;;;;;;2.45;91.38;101342.72;6034141;23;20029;-70
2022/02/05 02:13:09;;;;;;;2.70;2.60;;;;;;;2.25;92.04;101346.31;6000543;23;20512;-70
2022/02/05 02:15:47;;;;;;;3.15;3.05;;;;;;;1.97;92.57;101310.25;6021531;23;20044;-70
2022/02/05 02:18:27;;;;;;;2.70;2.60;;;;;;;1.97;92.11;101274.03;5993654;23;20453;-70
2022/02/05 02:26:57;;;;;;;2.80;2.70;;;;;;;2.27;91.86;101344.59;6031667;23;20026;-70
2022/02/05 02:29:05;;;;;;;2.80;2.70;;;;;;;2.25;92.17;101340.28;6011149;23;20031;-70
2022/02/05 02:31:36;;;;;;;4.90;4.70;;;;;;;2.23;91.66;101342.88;5997204;23;20011;-70
2022/02/05 02:34:06;;;;;;;2.92;2.83;;;;;;;2.35;91.87;101350.56;6029082;23;20027;-70
2022/02/05 02:39:17;;;;;;;2.80;2.70;;;;;;;2.29;91.75;101355.78;6030666;23;20548;-70
2022/02/05 02:41:55;;;;;;;2.88;2.78;;;;;;;2.17;92.21;101361.91;6001245;23;20023;-70
2022/02/05 02:44:22;;;;;;;2.88;2.78;;;;;;;2.11;91.69;101353.34;6036360;23;20027;-70
2022/02/05 02:46:48;;;;;;;3.00;2.90;;;;;;;2.04;92.09;101336.09;6005526;23;20081;-70
2022/02/05 02:49:21;;;;;;;2.88;2.78;;;;;;;1.81;92.15;101298.31;6028723;23;20027;-70
2022/02/05 02:57:34;;;;;;;2.80;2.70;;;;;;;2.15;92.34;101378.34;5919493;24;20020;-71
2022/02/05 03:00:06;;;;;;;2.90;2.80;;;;;;;1.67;92.20;101320.81;6020076;23;20033;-70
2022/02/05 03:02:33;;;;;;;3.70;3.60;;;;;;;2.05;92.71;101382.72;6001702;23;20035;-70
2022/02/05 03:04:59;;;;;;;2.90;2.80;;;;;;;1.90;93.07;101370.69;6030715;23;20022;-72
2022/02/05 03:07:27;;;;;;;4.45;4.25;;;;;;;1.77;92.14;101338.00;5996192;23;20463;-70
2022/02/05 03:09:55;;;;;;;2.88;2.78;;;;;;;2.03;92.73;101399.13;6030599;23;20027;-70
2022/02/05 03:12:22;;;;;;;4.22;4.03;;;;;;;2.07;92.94;101401.69;5992766;23;20024;-70
2022/02/05 03:14:50;;;;;;;3.10;3.00;;;;;;;2.06;92.64;101402.53;6025885;23;20038;-70
2022/02/05 03:17:19;;;;;;;3.10;3.00;;;;;;;1.66;92.78;101334.59;6001086;23;20102;-70
2022/02/05 03:19:48;;;;;;;4.68;4.28;;;;;;;1.85;92.51;101382.81;6023183;23;20085;-70
2022/02/05 03:22:17;;;;;;;2.90;2.80;;;;;;;1.89;92.69;101401.78;6000050;23;20472;-70
2022/02/05 03:24:44;;;;;;;3.10;3.00;;;;;;;1.52;92.80;101351.03;6021524;23;20350;-70
2022/02/05 03:27:13;;;;;;;3.28;3.17;;;;;;;1.45;93.16;101346.78;5995972;23;20034;-70
2022/02/05 03:29:44;;;;;;;2.70;2.60;;;;;;;1.87;93.74;101400.94;6031003;23;20021;-70
2022/02/05 03:32:10;;;;;;;2.90;2.80;;;;;;;1.80;93.44;101410.44;6024094;23;20044;-70
2022/02/05 03:34:38;;;;;;;3.67;3.55;;;;;;;1.81;94.09;101409.59;5996099;23;20018;-70
2022/02/05 03:37:05;;;;;;;2.63;2.53;;;;;;;1.80;93.93;101415.59;6029794;23;20030;-70
2022/02/05 03:39:32;;;;;;;3.67;3.58;;;;;;;1.79;93.47;101419.09;5969674;23;20023;-69
2022/02/05 03:41:59;;;;;;;2.80;2.70;;;;;;;1.47;93.96;101359.72;6029322;23;20637;-70
2022/02/05 03:44:25;;;;;;;2.80;2.70;;;;;;;1.81;93.77;101419.94;5997761;23;20024;-70
2022/02/05 03:46:54;;;;;;;2.63;2.53;;;;;;;1.34;94.31;101358.88;6025120;23;20031;-70
2022/02/05 03:49:22;;;;;;;4.32;4.13;;;;;;;1.73;94.17;101419.97;5994755;23;20008;-70
2022/02/05 03:51:49;;;;;;;2.80;2.70;;;;;;;1.72;93.95;101425.13;6030398;23;20066;-70
2022/02/05 03:54:21;;;;;;;3.25;3.15;;;;;;;1.49;94.34;101366.59;5999992;23;20546;-70
2022/02/05 03:56:48;;;;;;;2.80;2.70;;;;;;;1.85;93.52;101421.63;6026656;23;20357;-70
2022/02/05 03:59:15;;;;;;;2.60;2.50;;;;;;;1.73;93.77;101426.88;5996136;23;20184;-70
2022/02/05 04:01:42;;;;;;;2.88;2.78;;;;;;;1.87;93.53;101430.25;6030301;23;20025;-69
2022/02/05 04:04:09;;;;;;;2.78;2.67;;;;;;;1.92;93.20;101431.06;5991264;23;20023;-70
2022/02/05 04:06:36;;;;;;;3.10;3.00;;;;;;;0.71;92.69;101243.63;6018135;23;20013;-70
2022/02/05 04:09:07;;;;;;;2.72;2.63;;;;;;;1.30;93.02;101367.50;6001579;23;20019;-69
2022/02/05 04:16:48;;;;;;;3.03;2.92;;;;;;;1.73;93.02;101444.97;6027827;23;20032;-70
2022/02/05 04:19:16;;;;;;;2.67;2.58;;;;;;;1.82;92.72;101447.50;5982635;23;20027;-70
2022/02/05 04:21:43;;;;;;;2.70;2.60;;;;;;;1.80;92.74;101446.66;5999973;23;20011;-70
2022/02/05 04:24:10;;;;;;;2.60;2.50;;;;;;;1.94;92.50;101454.38;5987387;23;20037;-70
2022/02/05 04:26:36;;;;;;;3.72;3.63;;;;;;;1.98;92.17;101456.06;6024495;23;20023;-70
2022/02/05 04:29:07;;;;;;;2.70;2.60;;;;;;;1.88;91.90;101451.81;6009678;23;20052;-69
2022/02/05 04:31:34;;;;;;;2.70;2.60;;;;;;;1.87;91.54;101450.09;6025788;23;20014;-70
2022/02/05 04:34:01;;;;;;;2.65;2.55;;;;;;;1.90;91.96;101460.44;6001082;23;20031;-70
2022/02/05 04:36:27;;;;;;;3.20;3.10;;;;;;;2.06;91.36;101458.63;6024474;23;20025;-70
2022/02/05 04:38:58;;;;;;;2.70;2.60;;;;;;;0.61;90.43;101248.84;5983069;23;20695;-70
2022/02/05 04:41:32;;;;;;;3.00;2.90;;;;;;;1.88;91.27;101454.41;6029168;23;20440;-70
2022/02/05 04:59:49;;;;;;;2.60;2.50;;;;;;;1.42;92.87;101477.81;5995114;23;20008;-70
2022/02/05 05:07:54;;;;;;;2.92;2.83;;;;;;;1.44;94.04;101483.84;6027229;23;20581;-71
2022/02/05 05:10:29;;;;;;;4.18;4.00;;;;;;;1.35;94.03;101483.00;5984919;23;20630;-70
2022/02/05 05:20:39;;;;;;;2.90;2.80;;;;;;;1.14;94.94;101464.94;5993140;23;20642;-70
2022/02/05 05:23:07;;;;;;;2.75;2.65;;;;;;;1.27;94.71;101513.19;6027709;23;20023;-70
2022/02/05 05:25:34;;;;;;;3.30;3.20;;;;;;;1.24;95.13;101508.00;5994968;23;20029;-70
2022/02/05 05:28:01;;;;;;;2.70;2.60;;;;;;;0.31;95.19;101343.53;6032958;23;20015;-70
2022/02/05 05:30:27;;;;;;;4.65;4.45;;;;;;;0.73;94.84;101415.00;6002418;23;20029;-71
2022/02/05 05:32:54;;;;;;;2.60;2.50;;;;;;;1.25;95.30;101495.97;6026014;23;20046;-70
2022/02/05 05:35:20;;;;;;;5.72;5.38;;;;;;;1.04;95.82;101489.06;5991963;23;20379;-70
2022/02/05 05:37:50;;;;;;;2.67;2.58;;;;;;;1.26;95.46;101511.44;6023927;23;20533;-70
2022/02/05 05:40:17;;;;;;;2.90;2.80;;;;;;;1.25;95.42;101509.75;5960968;23;20094;-70
2022/02/05 05:42:49;;;;;;;3.17;3.08;;;;;;;0.74;95.90;101421.00;6000658;23;20022;-70
2022/02/05 05:45:30;;;;;;;2.90;2.80;;;;;;;1.22;95.50;101514.91;5975139;23;20024;-70
2022/02/05 05:48:12;;;;;;;2.60;2.50;;;;;;;1.19;95.76;101520.94;5999339;23;20023;-70
2022/02/05 05:53:11;;;;;;;4.40;4.20;;;;;;;1.12;95.75;101519.25;6001984;23;20034;-70
2022/02/05 05:55:43;;;;;;;3.00;2.90;;;;;;;1.10;96.10;101523.56;5988898;23;20031;-70
2022/02/05 05:58:10;;;;;;;2.60;2.50;;;;;;;1.27;96.31;101530.44;6010372;23;20041;-69
2022/02/05 06:00:38;;;;;;;3.42;3.33;;;;;;;1.26;95.96;101521.78;5997226;23;20289;-68
2022/02/05 06:03:04;;;;;;;2.40;2.30;;;;;;;1.50;95.70;101531.25;6027279;23;20045;-69
2022/02/05 06:05:32;;;;;;;2.65;2.55;;;;;;;1.16;95.18;101463.19;6006050;23;20050;-70
2022/02/05 06:08:00;;;;;;;2.80;2.70;;;;;;;1.53;94.53;101500.22;6033954;23;20042;-70
2022/02/05 06:10:26;;;;;;;4.22;4.03;;;;;;;1.62;94.49;101504.50;5998306;23;20015;-70
2022/02/05 06:12:53;;;;;;;2.70;2.60;;;;;;;1.77;93.90;101532.94;6029204;23;20091;-70
2022/02/05 06:15:19;;;;;;;2.85;2.75;;;;;;;1.79;94.59;101543.28;5998997;23;20575;-70
2022/02/05 06:17:48;;;;;;;2.60;2.50;;;;;;;1.53;93.74;101487.28;6004804;23;20026;-70
2022/02/05 06:20:14;;;;;;;2.53;2.42;;;;;;;1.92;93.55;101550.16;6021203;23;20047;-70
2022/02/05 06:22:41;;;;;;;3.00;2.90;;;;;;;1.92;93.18;101550.16;6004694;23;20027;-70
2022/02/05 06:25:08;;;;;;;2.90;2.80;;;;;;;1.49;93.26;101490.75;6033804;23;20027;-70
2022/02/05 06:27:34;;;;;;;3.35;3.25;;;;;;;1.54;93.09;101512.31;6001535;23;20023;-69
2022/02/05 06:30:01;;;;;;;2.80;2.70;;;;;;;1.95;92.69;101547.56;6018148;23;20051;-69
2022/02/05 06:32:27;;;;;;;4.75;4.55;;;;;;;2.01;92.43;101563.97;5968200;23;20020;-70
2022/02/05 06:34:54;;;;;;;2.80;2.70;;;;;;;1.91;92.41;101565.69;6001306;23;20022;-70
2022/02/05 06:37:20;;;;;;;2.90;2.80;;;;;;;1.86;92.46;101568.28;5970109;23;20024;-70
2022/02/05 06:39:46;;;;;;;2.65;2.55;;;;;;;1.47;92.71;101527.84;5998440;23;20784;-70
2022/02/05 06:42:13;;;;;;;3.05;2.95;;;;;;;1.19;92.93;101479.56;5974381;23;20031;-70
2022/02/05 06:44:39;;;;;;;2.72;2.63;;;;;;;1.72;93.63;101573.47;6002341;23;20029;-70
2022/02/05 06:47:06;;;;;;;2.63;2.53;;;;;;;1.06;93.46;101462.34;5998375;23;20116;-70
2022/02/05 06:49:34;;;;;;;3.50;3.40;;;;;;;1.53;93.90;101549.38;6019102;23;20373;-70
2022/02/05 06:52:02;;;;;;;2.92;2.83;;;;;;;1.30;93.70;101527.84;5950602;23;20136;-69
2022/02/05 06:54:30;;;;;;;4.45;4.25;;;;;;;1.56;94.20;101571.78;5969259;23;20008;-70
2022/02/05 06:56:56;;;;;;;2.80;2.70;;;;;;;1.59;94.54;101575.22;5972357;23;20032;-69
2022/02/05 06:59:23;;;;;;;4.47;4.28;;;;;;;1.51;94.08;101574.38;5971251;23;20011;-70
2022/02/05 07:01:49;;;;;;;3.00;2.90;;;;;;;1.49;95.30;101572.66;5955693;23;20032;-70
2022/02/05 07:04:17;;;;;;;3.08;2.97;;;;;;;1.31;95.34;101535.59;5973452;23;20462;-70
2022/02/05 07:06:45;;;;;;;3.10;3.00;;;;;;;1.56;95.35;101579.53;5969997;23;20465;-70
2022/02/05 07:09:11;;;;;;;2.85;2.75;;;;;;;0.94;95.09;101511.44;5972505;23;20082;-71
2022/02/05 07:11:37;;;;;;;3.13;3.03;;;;;;;1.59;95.62;101592.50;5975044;23;20079;-71
2022/02/05 07:14:06;;;;;;;2.90;2.80;;;;;;;1.52;95.53;101601.09;5973359;23;20297;-70
2022/02/05 07:16:39;;;;;;;2.88;2.78;;;;;;;1.47;95.27;101608.88;5976721;23;20019;-72
2022/02/05 07:21:43;;;;;;;3.05;2.95;;;;;;;1.22;95.57;101578.69;5965912;23;20431;-71
2022/02/05 07:29:40;;;;;;;2.92;2.83;;;;;;;1.41;96.51;101603.69;5968087;23;20236;-71
2022/02/05 07:32:07;;;;;;;2.80;2.70;;;;;;;1.03;96.35;101545.06;5972936;23;20027;-71
2022/02/05 07:34:35;;;;;;;3.00;2.90;;;;;;;1.35;96.97;101588.19;5964875;23;20020;-71
2022/02/05 07:37:02;;;;;;;2.78;2.67;;;;;;;1.30;96.99;101579.53;5948615;23;20094;-71
2022/02/05 07:39:30;;;;;;;4.95;4.75;;;;;;;1.54;96.93;101595.09;5969734;23;20017;-71
2022/02/05 07:41:57;;;;;;;2.90;2.80;;;;;;;1.64;96.75;101605.41;5995409;23;20199;-71
2022/02/05 07:44:23;;;;;;;4.55;4.35;;;;;;;1.63;96.26;101611.47;5989642;23;20018;-71
2022/02/05 07:46:51;;;;;;;2.92;2.83;;;;;;;1.62;96.03;101615.75;5995532;23;20031;-71
2022/02/05 07:49:22;;;;;;;3.38;3.28;;;;;;;1.46;96.38;101589.03;5981447;23;20024;-71
2022/02/05 07:51:49;;;;;;;2.83;2.72;;;;;;;1.27;96.41;101567.50;5996566;23;20186;-71
2022/02/05 07:54:16;;;;;;;2.88;2.78;;;;;;;1.67;96.00;101628.72;6016541;23;20190;-72
2022/02/05 07:56:49;;;;;;;3.10;3.00;;;;;;;1.67;95.93;101631.31;5988191;23;20052;-72
2022/02/05 07:59:18;;;;;;;3.38;3.25;;;;;;;1.44;96.33;101597.66;6021833;23;20019;-71
2022/02/05 08:01:45;;;;;;;2.97;2.88;;;;;;;1.47;96.44;101582.16;5971436;23;20034;-71
2022/02/05 08:04:12;;;;;;;2.90;2.80;;;;;;;1.86;95.90;101647.66;6019405;23;20113;-72
2022/02/05 08:06:39;;;;;;;2.95;2.85;;;;;;;1.66;95.34;101609.72;5997946;23;20062;-71
2022/02/05 08:09:20;;;;;;;3.00;2.90;;;;;;;1.88;95.14;101635.59;6017993;23;20023;-71
2022/02/05 08:11:54;;;;;;;2.90;2.80;;;;;;;2.02;95.08;101638.16;5996910;23;20147;-71
2022/02/05 08:14:21;;;;;;;2.92;2.83;;;;;;;1.65;94.26;101560.56;6020379;23;20488;-71
2022/02/05 08:17:13;;;;;;;3.10;3.00;;;;;;;2.18;94.16;101645.03;6016799;23;20082;-71
2022/02/05 08:19:39;;;;;;;2.90;2.80;;;;;;;2.23;93.94;101652.81;6023319;23;20014;-71
2022/02/05 08:22:17;;;;;;;3.00;2.90;;;;;;;2.33;93.61;101647.59;5993193;23;20082;-71
2022/02/05 08:24:43;;;;;;;3.17;3.08;;;;;;;2.33;93.01;101637.22;6023456;23;20307;-71
2022/02/05 08:27:10;;;;;;;3.00;2.90;;;;;;;1.73;93.39;101553.66;6029739;23;20141;-71
2022/02/05 08:29:41;;;;;;;3.17;3.08;;;;;;;2.37;92.85;101651.03;6023269;23;20334;-71
2022/02/05 08:32:07;;;;;;;3.50;3.33;;;;;;;2.14;93.17;101597.53;5986712;23;20023;-71
2022/02/05 08:34:34;;;;;;;4.07;3.88;;;;;;;2.58;92.69;101660.44;5993304;23;20019;-71
2022/02/05 08:37:00;;;;;;;2.80;2.70;;;;;;;2.57;92.02;101627.66;6035230;23;20015;-71
2022/02/05 08:39:27;;;;;;;4.40;4.20;;;;;;;2.67;91.62;101634.50;5994323;23;20027;-71
2022/02/05 08:41:53;;;;;;;3.10;3.00;;;;;;;2.84;91.55;101657.75;6022112;23;20035;-71
2022/02/05 08:44:20;;;;;;;4.05;3.88;;;;;;;2.83;90.73;101649.97;5999778;23;20331;-71
2022/02/05 08:46:47;;;;;;;3.20;3.10;;;;;;;2.68;90.74;101628.44;6022641;23;20429;-72
2022/02/05 08:49:15;;;;;;;2.78;2.67;;;;;;;2.80;90.56;101641.34;5993445;23;20397;-72
2022/02/05 08:51:41;;;;;;;2.72;2.63;;;;;;;3.12;90.76;101675.75;6033614;23;20235;-71
2022/02/05 08:54:08;;;;;;;2.90;2.80;;;;;;;3.19;89.91;101678.31;5993291;23;20035;-71
2022/02/05 08:56:34;;;;;;;4.10;3.90;;;;;;;3.03;89.84;101631.72;6019431;23;20026;-72
2022/02/05 08:59:02;;;;;;;2.85;2.75;;;;;;;3.33;89.86;101657.47;6027657;23;20073;-71
2022/02/05 09:01:45;;;;;;;4.82;4.63;;;;;;;3.15;90.00;101639.44;6019959;23;20291;-71
2022/02/05 09:04:31;;;;;;;2.78;2.67;;;;;;;3.45;89.42;101653.94;6022518;23;20039;-71
2022/02/05 09:06:59;;;;;;;2.90;2.80;;;;;;;3.54;88.58;101659.03;6027661;23;20053;-71
2022/02/05 09:14:46;;;;;;;3.17;3.08;;;;;;;3.45;87.99;101612.41;5986685;23;20532;-71
2022/02/05 09:17:12;;;;;;;3.00;2.90;;;;;;;3.76;88.94;101662.31;6025823;23;20037;-67
2022/02/05 09:19:42;;;;;;;3.30;3.20;;;;;;;3.85;88.34;101670.91;5994348;23;20408;-71
2022/02/05 09:22:11;;;;;;;3.25;3.15;;;;;;;3.92;88.32;101663.06;6021716;23;20030;-70
2022/02/05 09:24:38;;;;;;;3.50;3.40;;;;;;;3.94;86.78;101653.50;6001376;23;20071;-71
2022/02/05 09:27:08;;;;;;;3.13;3.03;;;;;;;4.04;87.28;101653.44;5997513;23;20565;-71
2022/02/05 09:29:43;;;;;;;3.10;3.00;;;;;;;3.60;86.96;101575.94;6020964;23;20611;-71
2022/02/05 09:32:09;;;;;;;3.17;3.08;;;;;;;3.85;86.25;101598.22;6021420;23;20031;-71
2022/02/05 09:34:36;;;;;;;3.10;3.00;;;;;;;4.32;85.64;101649.66;5995224;23;20602;-71
2022/02/05 09:37:03;;;;;;;3.30;3.20;;;;;;;4.34;84.29;101657.47;6020815;23;20031;-71
2022/02/05 09:39:30;;;;;;;5.20;5.00;;;;;;;3.85;84.61;101604.28;6026915;23;20182;-70
2022/02/05 09:41:56;;;;;;;3.50;3.40;;;;;;;4.34;84.96;101665.25;6001659;23;20018;-72
2022/02/05 09:44:30;;;;;;;5.03;4.82;;;;;;;4.09;84.68;101623.94;5991177;23;20424;-70
2022/02/05 09:46:57;;;;;;;3.10;3.00;;;;;;;4.03;84.32;101576.38;6028486;23;20424;-71
2022/02/05 09:49:25;;;;;;;4.57;4.38;;;;;;;4.61;84.41;101674.50;5998433;23;20480;-71
2022/02/05 09:52:06;;;;;;;3.22;3.13;;;;;;;4.73;84.20;101686.47;6040283;23;20052;-71
2022/02/05 09:54:37;;;;;;;4.80;4.60;;;;;;;4.75;83.60;101669.09;5980664;23;20057;-71
2022/02/05 09:57:04;;;;;;;3.90;3.70;;;;;;;4.67;82.65;101668.34;6024844;23;20029;-71
2022/02/05 09:59:48;;;;;;;5.20;5.00;;;;;;;4.98;82.15;101685.28;5976997;23;20070;-71
2022/02/05 10:02:22;;;;;;;3.83;3.70;;;;;;;5.04;82.43;101688.69;6022560;23;20007;-71
2022/02/05 10:05:09;;;;;;;4.00;3.80;;;;;;;4.90;81.92;101688.88;6002532;23;20026;-71
2022/02/05 10:08:15;;;;;;;3.50;3.40;;;;;;;4.99;82.08;101696.53;6019393;23;20464;-71
2022/02/05 10:10:44;;;;;;;3.22;3.13;;;;;;;4.94;80.94;101700.97;5981964;23;20012;-71
2022/02/05 10:13:18;;;;;;;3.17;3.08;;;;;;;4.87;81.90;101697.59;6003181;23;20166;-71
2022/02/05 10:15:52;;;;;;;3.50;3.40;;;;;;;4.98;81.15;101702.63;5971538;23;20092;-70
2022/02/05 10:18:23;;;;;;;3.60;3.50;;;;;;;4.97;81.09;101706.09;5999212;23;20094;-71
2022/02/05 10:20:50;;;;;;;3.40;3.30;;;;;;;4.94;81.08;101696.59;5993648;23;20019;-71
2022/02/05 10:23:17;;;;;;;3.70;3.55;;;;;;;5.18;80.08;101712.78;6003528;23;20043;-71
2022/02/05 10:25:49;;;;;;;3.35;3.25;;;;;;;5.09;81.15;101718.09;5967620;23;20496;-71
2022/02/05 10:28:16;;;;;;;3.65;3.53;;;;;;;5.14;81.06;101713.72;6031118;23;20047;-72
2022/02/05 10:30:47;;;;;;;3.40;3.30;;;;;;;5.18;80.79;101713.63;5999493;23;20469;-72
2022/02/05 10:33:22;;;;;;;3.30;3.20;;;;;;;5.30;80.30;101723.03;6030190;23;20031;-72
2022/02/05 10:36:13;;;;;;;3.50;3.40;;;;;;;5.31;79.50;101716.94;5991425;23;20050;-71
2022/02/05 10:44:16;;;;;;;3.30;3.20;;;;;;;5.39;78.63;101716.81;6028529;23;20086;-71
2022/02/05 10:46:43;;;;;;;3.15;3.05;;;;;;;5.37;78.57;101711.66;6027402;23;20076;-71
2022/02/05 10:49:48;;;;;;;3.20;3.10;;;;;;;4.77;79.96;101538.19;6022849;23;20010;-72
2022/02/05 10:52:35;;;;;;;3.35;3.25;;;;;;;5.98;77.55;101704.66;6003535;23;20031;-72
2022/02/05 10:57:43;;;;;;;4.97;4.78;;;;;;;6.42;76.27;101719.53;5996416;23;20023;-71
2022/02/05 11:05:14;;;;;;;3.30;3.20;;;;;;;6.41;75.70;101683.91;6019112;23;20038;-72
2022/02/05 11:08:11;;;;;;;3.55;3.45;;;;;;;6.76;72.87;101629.28;6029013;23;20164;-71
2022/02/05 11:18:56;;;;;;;3.50;3.40;;;;;;;7.16;72.74;101695.44;6024125;23;20022;-71
2022/02/05 11:21:44;;;;;;;3.80;3.70;;;;;;;7.02;69.66;101653.97;5994993;23;20015;-71
2022/02/05 11:24:12;;;;;;;3.50;3.40;;;;;;;6.58;70.38;101591.41;6031268;23;20386;-70
2022/02/05 11:26:39;;;;;;;4.00;3.80;;;;;;;6.53;70.69;101624.53;5974699;23;20151;-73
2022/02/05 11:29:05;;;;;;;3.70;3.60;;;;;;;7.10;70.52;101688.59;6029924;23;20387;-72
2022/02/05 11:34:27;;;;;;;3.63;3.53;;;;;;;7.51;68.57;101688.53;6025307;23;20044;-71
2022/02/05 11:37:08;;;;;;;4.00;3.80;;;;;;;7.78;67.89;101689.66;5996114;23;20015;-72
2022/02/05 11:39:54;;;;;;;4.35;4.15;;;;;;;7.83;68.34;101682.53;6031205;23;20183;-72
2022/02/05 11:42:24;;;;;;;5.35;5.15;;;;;;;8.20;67.24;101684.22;5988953;23;20578;-72
2022/02/05 11:44:51;;;;;;;3.70;3.60;;;;;;;7.97;66.31;101637.75;6028854;23;20251;-72
2022/02/05 11:47:21;;;;;;;4.22;4.03;;;;;;;7.55;65.79;101641.41;5994847;23;20096;-72
2022/02/05 11:49:53;;;;;;;3.60;3.50;;;;;;;7.02;67.00;101687.91;6017382;23;20243;-71
2022/02/05 11:52:35;;;;;;;4.63;4.43;;;;;;;6.88;69.23;101679.50;5991487;23;20025;-72
2022/02/05 11:55:27;;;;;;;3.55;3.45;;;;;;;7.02;68.42;101681.84;6022208;23;20010;-71
2022/02/05 11:58:02;;;;;;;4.00;3.80;;;;;;;6.42;67.50;101657.81;5996682;23;20038;-72
2022/02/05 12:00:34;;;;;;;4.80;4.60;;;;;;;7.25;68.47;101696.97;6024465;23;20089;-72
2022/02/05 12:03:37;;;;;;;4.00;3.80;;;;;;;7.29;66.85;101612.47;5992626;23;20040;-71
2022/02/05 12:06:06;;;;;;;3.70;3.60;;;;;;;7.86;66.50;101692.03;6022860;23;20035;-71
2022/02/05 12:08:40;;;;;;;5.95;5.65;;;;;;;7.85;65.50;101645.91;5996601;23;20037;-72
2022/02/05 12:11:30;;;;;;;3.58;3.47;;;;;;;7.05;65.23;101630.41;6023414;23;20363;-72
2022/02/05 12:14:18;;;;;;;4.10;3.90;;;;;;;7.02;67.84;101687.06;6026400;23;20050;-72
2022/02/05 12:17:05;;;;;;;3.55;3.45;;;;;;;6.84;67.64;101649.16;6028529;23;20020;-72
2022/02/05 12:19:32;;;;;;;5.07;4.85;;;;;;;7.28;67.36;101687.34;5976435;23;20026;-73
2022/02/05 12:22:04;;;;;;;4.00;3.80;;;;;;;6.78;65.85;101562.28;5926778;23;20018;-72
2022/02/05 12:25:14;;;;;;;5.82;5.55;;;;;;;7.30;65.46;101664.66;5995361;23;20417;-72
2022/02/05 12:27:41;;;;;;;4.10;3.90;;;;;;;7.47;65.89;101666.84;6021331;23;20546;-72
2022/02/05 12:30:26;;;;;;;3.67;3.58;;;;;;;7.22;64.42;101658.75;6024763;23;20106;-72
2022/02/05 12:32:56;;;;;;;4.00;3.80;;;;;;;7.16;64.76;101648.44;5996036;23;20019;-72
2022/02/05 12:35:23;;;;;;;4.85;4.65;;;;;;;7.32;65.00;101655.03;5996339;23;20030;-72
2022/02/05 12:37:49;;;;;;;4.10;3.90;;;;;;;6.77;65.24;101573.59;6024743;23;20020;-73
2022/02/05 12:40:16;;;;;;;3.70;3.60;;;;;;;7.18;63.05;101610.13;6033723;23;20027;-72
2022/02/05 12:42:53;;;;;;;3.60;3.50;;;;;;;7.47;63.76;101651.19;5995462;23;20433;-73
2022/02/05 12:45:50;;;;;;;5.20;5.00;;;;;;;7.09;63.40;101636.41;6018821;23;20019;-74
2022/02/05 12:48:19;;;;;;;4.20;4.03;;;;;;;7.02;65.16;101582.66;5995099;23;20255;-73
2022/02/05 12:50:47;;;;;;;3.60;3.50;;;;;;;6.33;65.07;101447.66;6022742;23;20011;-72
2022/02/05 12:53:14;;;;;;;3.55;3.45;;;;;;;6.66;64.16;101471.28;5997231;23;20019;-71
2022/02/05 12:55:45;;;;;;;3.60;3.50;;;;;;;7.31;61.81;101501.84;6013052;23;20030;-71
2022/02/05 12:58:16;;;;;;;3.70;3.60;;;;;;;8.17;60.47;101588.41;5974924;23;20023;-71
2022/02/05 13:00:43;;;;;;;4.30;4.10;;;;;;;8.13;60.45;101575.47;6010334;23;20015;-71
2022/02/05 13:03:26;;;;;;;4.00;3.80;;;;;;;8.44;60.40;101621.69;6007219;23;20326;-71
2022/02/05 13:05:53;;;;;;;4.00;3.80;;;;;;;8.18;59.32;101560.50;5996501;23;20225;-71
2022/02/05 13:08:20;;;;;;;4.47;4.28;;;;;;;7.68;58.91;101494.81;5992687;23;20207;-72
2022/02/05 13:10:48;;;;;;;3.80;3.70;;;;;;;8.61;59.07;101629.94;6022130;23;20369;-70
2022/02/05 13:13:16;;;;;;;8.15;4.38;;;;;;;8.25;60.00;101642.25;6004152;23;20246;-71
2022/02/05 13:16:03;;;;;;;3.72;3.60;;;;;;;7.83;61.27;101596.31;6001099;23;20037;-70
2022/02/05 13:18:43;;;;;;;3.60;3.50;;;;;;;8.31;60.44;101622.00;6000151;23;20084;-71
2022/02/05 13:26:56;;;;;;;4.00;3.80;;;;;;;7.67;60.44;101635.03;6051621;23;20027;-71
2022/02/05 13:29:57;;;;;;;4.93;4.72;;;;;;;7.70;59.80;101613.22;5994814;23;20071;-71
2022/02/05 13:35:02;;;;;;;3.70;3.50;;;;;;;8.01;59.50;101602.78;6011742;23;20071;-73
2022/02/05 13:37:46;;;;;;;5.22;5.03;;;;;;;8.10;58.34;101597.31;6038409;23;20072;-71
2022/02/05 13:40:17;;;;;;;3.80;3.70;;;;;;;8.06;57.68;101584.34;6008636;23;20444;-73
2022/02/05 13:42:48;;;;;;;3.95;3.75;;;;;;;8.08;58.23;101590.41;6034837;23;20037;-73
2022/02/05 13:45:25;;;;;;;3.60;3.50;;;;;;;7.58;58.34;101546.47;6003039;23;20080;-71
2022/02/05 13:47:53;;;;;;;3.70;3.60;;;;;;;7.58;58.41;101507.28;6045422;23;20029;-73
2022/02/05 13:50:21;;;;;;;4.30;4.10;;;;;;;7.80;58.11;101583.31;5993108;23;20057;-74
2022/02/05 13:52:51;;;;;;;3.80;3.70;;;;;;;7.13;57.54;101478.84;6037122;23;20029;-71
2022/02/05 13:55:33;;;;;;;3.95;3.80;;;;;;;7.14;58.13;101520.56;5994223;23;20026;-71
2022/02/05 13:58:05;;;;;;;3.70;3.60;;;;;;;7.52;58.99;101583.19;6032028;23;20198;-69
2022/02/05 14:00:52;;;;;;;5.55;5.35;;;;;;;7.42;58.81;101600.84;6004302;23;20015;-70
2022/02/05 14:03:27;;;;;;;4.60;4.40;;;;;;;7.33;58.39;101594.06;6029396;23;20072;-70
2022/02/05 14:06:08;;;;;;;4.00;3.80;;;;;;;7.49;58.95;101578.03;6018920;23;20808;-70
2022/02/05 14:08:41;;;;;;;4.38;4.18;;;;;;;7.31;59.58;101569.75;6031002;23;20035;-70
2022/02/05 14:11:08;;;;;;;3.70;3.60;;;;;;;7.38;59.34;101566.09;6003676;23;20047;-70
2022/02/05 14:13:36;;;;;;;4.00;3.80;;;;;;;7.23;59.50;101560.41;6032399;23;20344;-70
2022/02/05 14:16:04;;;;;;;3.53;3.42;;;;;;;7.33;59.72;101520.09;6007518;23;20027;-70
2022/02/05 14:18:49;;;;;;;5.18;4.97;;;;;;;7.67;58.63;101529.69;6021226;23;20333;-71
2022/02/05 14:21:16;;;;;;;3.70;3.60;;;;;;;8.20;58.35;101566.56;5989618;23;20046;-74
2022/02/05 14:23:51;;;;;;;3.80;3.70;;;;;;;8.09;58.29;101564.22;6025273;23;20350;-72
2022/02/05 14:26:21;;;;;;;5.80;5.55;;;;;;;7.95;57.77;101551.53;5995146;23;20503;-72
2022/02/05 14:28:54;;;;;;;3.80;3.70;;;;;;;7.82;57.13;101491.81;6030720;23;20019;-72
2022/02/05 14:31:30;;;;;;;5.00;4.80;;;;;;;7.36;57.15;101428.66;6018928;23;20191;-74